sensor_id;sensor_type;location;lat;lon;timestamp;temperature;humidity
45643;DHT22;31358;46.008;11.144;2022-12-05T00:02:20;6.60;99.90
45643;DHT22;31358;46.008;11.144;2022-12-05T00:04:46;6.60;99.90
45643;DHT22;31358;46.008;11.144;2022-12-05T00:07:11;6.50;99.90
45643;DHT22;31358;46.008;11.144;2022-12-05T00:09:37;6.50;99.90
45643;DHT22;31358;46.008;11.144;2022-12-05T00:12:03;6.60;99.90
45643;DHT22;31358;46.008;11.144;2022-12-05T00:14:28;6.60;99.90
45643;DHT22;31358;46.008;11.144;2022-12-05T00:16:54;6.60;99.90
45643;DHT22;31358;46.008;11.144;2022-12-05T00:19:20;6.50;99.90
45643;DHT22;31358;46.008;11.144;2022-12-05T00:21:45;6.50;99.90
45643;DHT22;31358;46.008;11.144;2022-12-05T00:24:13;6.50;99.90
45643;DHT22;31358;46.008;11.144;2022-12-05T00:26:39;6.40;99.90
45643;DHT22;31358;46.008;11.144;2022-12-05T00:29:05;6.50;99.90
45643;DHT22;31358;46.008;11.144;2022-12-05T00:31:31;6.60;99.90
45643;DHT22;31358;46.008;11.144;2022-12-05T00:33:59;6.60;99.90
45643;DHT22;31358;46.008;11.144;2022-12-05T00:36:27;6.60;99.90
45643;DHT22;31358;46.008;11.144;2022-12-05T00:38:53;6.60;99.90
45643;DHT22;31358;46.008;11.144;2022-12-05T00:41:23;6.60;99.90
45643;DHT22;31358;46.008;11.144;2022-12-05T00:43:49;6.60;99.90
45643;DHT22;31358;46.008;11.144;2022-12-05T00:46:18;6.60;99.90
45643;DHT22;31358;46.008;11.144;2022-12-05T00:48:43;6.50;99.90
45643;DHT22;31358;46.008;11.144;2022-12-05T00:51:17;6.50;99.90
45643;DHT22;31358;46.008;11.144;2022-12-05T00:53:43;6.60;99.90
45643;DHT22;31358;46.008;11.144;2022-12-05T00:56:15;6.60;99.90
45643;DHT22;31358;46.008;11.144;2022-12-05T00:58:42;6.60;99.90
45643;DHT22;31358;46.008;11.144;2022-12-05T01:01:14;6.60;99.90
45643;DHT22;31358;46.008;11.144;2022-12-05T01:03:41;6.60;99.90
45643;DHT22;31358;46.008;11.144;2022-12-05T01:06:07;6.60;99.90
45643;DHT22;31358;46.008;11.144;2022-12-05T01:08:35;6.60;99.90
45643;DHT22;31358;46.008;11.144;2022-12-05T01:11:02;6.60;99.90
45643;DHT22;31358;46.008;11.144;2022-12-05T01:13:29;6.60;99.90
45643;DHT22;31358;46.008;11.144;2022-12-05T01:15:55;6.60;99.90
45643;DHT22;31358;46.008;11.144;2022-12-05T01:18:22;6.60;99.90
45643;DHT22;31358;46.008;11.144;2022-12-05T01:20:48;6.60;99.90
45643;DHT22;31358;46.008;11.144;2022-12-05T01:23:13;6.70;99.90
45643;DHT22;31358;46.008;11.144;2022-12-05T01:25:40;6.60;99.90
45643;DHT22;31358;46.008;11.144;2022-12-05T01:28:07;6.70;99.90
45643;DHT22;31358;46.008;11.144;2022-12-05T01:30:37;6.60;99.90
45643;DHT22;31358;46.008;11.144;2022-12-05T01:33:04;6.60;99.90
45643;DHT22;31358;46.008;11.144;2022-12-05T01:35:37;6.60;99.90
45643;DHT22;31358;46.008;11.144;2022-12-05T01:38:03;6.60;99.90
45643;DHT22;31358;46.008;11.144;2022-12-05T01:40:30;6.60;99.90
45643;DHT22;31358;46.008;11.144;2022-12-05T01:42:56;6.70;99.90
45643;DHT22;31358;46.008;11.144;2022-12-05T01:47:57;6.70;99.90
45643;DHT22;31358;46.008;11.144;2022-12-05T01:50:22;6.70;99.90
45643;DHT22;31358;46.008;11.144;2022-12-05T01:52:48;6.70;99.90
45643;DHT22;31358;46.008;11.144;2022-12-05T01:55:16;6.70;99.90
45643;DHT22;31358;46.008;11.144;2022-12-05T01:57:43;6.70;99.90
45643;DHT22;31358;46.008;11.144;2022-12-05T02:00:13;6.70;99.90
45643;DHT22;31358;46.008;11.144;2022-12-05T02:02:43;6.60;99.90
45643;DHT22;31358;46.008;11.144;2022-12-05T02:05:29;6.60;99.90
45643;DHT22;31358;46.008;11.144;2022-12-05T02:07:57;6.60;99.90
45643;DHT22;31358;46.008;11.144;2022-12-05T02:10:24;6.70;99.90
45643;DHT22;31358;46.008;11.144;2022-12-05T02:12:50;6.70;99.90
45643;DHT22;31358;46.008;11.144;2022-12-05T02:23:22;6.80;99.90
45643;DHT22;31358;46.008;11.144;2022-12-05T02:29:16;6.70;99.90
45643;DHT22;31358;46.008;11.144;2022-12-05T02:37:22;6.70;99.90
45643;DHT22;31358;46.008;11.144;2022-12-05T02:40:04;6.70;99.90
45643;DHT22;31358;46.008;11.144;2022-12-05T02:42:37;6.60;99.90
45643;DHT22;31358;46.008;11.144;2022-12-05T02:45:12;6.60;99.90
45643;DHT22;31358;46.008;11.144;2022-12-05T02:47:44;6.70;99.90
45643;DHT22;31358;46.008;11.144;2022-12-05T02:50:13;6.60;99.90
45643;DHT22;31358;46.008;11.144;2022-12-05T02:52:41;6.70;99.90
45643;DHT22;31358;46.008;11.144;2022-12-05T02:55:08;6.70;99.90
45643;DHT22;31358;46.008;11.144;2022-12-05T02:57:35;6.70;99.90
45643;DHT22;31358;46.008;11.144;2022-12-05T03:00:02;6.70;99.90
45643;DHT22;31358;46.008;11.144;2022-12-05T03:02:32;6.70;99.90
45643;DHT22;31358;46.008;11.144;2022-12-05T03:05:36;6.70;99.90
45643;DHT22;31358;46.008;11.144;2022-12-05T03:08:09;6.70;99.90
45643;DHT22;31358;46.008;11.144;2022-12-05T03:10:39;6.70;99.90
45643;DHT22;31358;46.008;11.144;2022-12-05T03:13:25;6.60;99.90
45643;DHT22;31358;46.008;11.144;2022-12-05T03:15:59;6.60;99.90
45643;DHT22;31358;46.008;11.144;2022-12-05T03:18:35;6.60;99.90
45643;DHT22;31358;46.008;11.144;2022-12-05T03:23:55;6.40;99.90
45643;DHT22;31358;46.008;11.144;2022-12-05T03:29:08;6.40;99.90
45643;DHT22;31358;46.008;11.144;2022-12-05T03:31:44;6.50;99.90
45643;DHT22;31358;46.008;11.144;2022-12-05T03:34:15;6.60;99.90
45643;DHT22;31358;46.008;11.144;2022-12-05T03:36:48;6.60;99.90
45643;DHT22;31358;46.008;11.144;2022-12-05T03:39:23;6.70;99.90
45643;DHT22;31358;46.008;11.144;2022-12-05T03:44:51;6.70;99.90
45643;DHT22;31358;46.008;11.144;2022-12-05T03:49:59;6.60;99.90
45643;DHT22;31358;46.008;11.144;2022-12-05T03:52:32;6.70;99.90
45643;DHT22;31358;46.008;11.144;2022-12-05T03:55:02;6.60;99.90
45643;DHT22;31358;46.008;11.144;2022-12-05T04:00:06;6.50;99.90
45643;DHT22;31358;46.008;11.144;2022-12-05T04:02:41;6.50;99.90
45643;DHT22;31358;46.008;11.144;2022-12-05T04:05:42;6.50;99.90
45643;DHT22;31358;46.008;11.144;2022-12-05T04:08:13;6.50;99.90
45643;DHT22;31358;46.008;11.144;2022-12-05T04:10:45;6.50;99.90
45643;DHT22;31358;46.008;11.144;2022-12-05T04:16:12;6.50;99.90
45643;DHT22;31358;46.008;11.144;2022-12-05T04:19:05;6.50;99.90
45643;DHT22;31358;46.008;11.144;2022-12-05T04:21:39;6.40;99.90
45643;DHT22;31358;46.008;11.144;2022-12-05T04:24:14;6.50;99.90
45643;DHT22;31358;46.008;11.144;2022-12-05T04:29:52;6.60;99.90
45643;DHT22;31358;46.008;11.144;2022-12-05T04:32:19;6.60;99.90
45643;DHT22;31358;46.008;11.144;2022-12-05T04:34:53;6.60;99.90
45643;DHT22;31358;46.008;11.144;2022-12-05T04:37:22;6.50;99.90
45643;DHT22;31358;46.008;11.144;2022-12-05T04:40:05;6.40;99.90
45643;DHT22;31358;46.008;11.144;2022-12-05T04:42:35;6.50;99.90
45643;DHT22;31358;46.008;11.144;2022-12-05T04:45:05;6.60;99.90
45643;DHT22;31358;46.008;11.144;2022-12-05T04:47:38;6.60;99.90
45643;DHT22;31358;46.008;11.144;2022-12-05T04:50:07;6.60;99.90
45643;DHT22;31358;46.008;11.144;2022-12-05T04:52:34;6.60;99.90
45643;DHT22;31358;46.008;11.144;2022-12-05T04:55:27;6.60;99.90
45643;DHT22;31358;46.008;11.144;2022-12-05T04:58:10;6.70;99.90
45643;DHT22;31358;46.008;11.144;2022-12-05T05:01:18;6.60;99.90
45643;DHT22;31358;46.008;11.144;2022-12-05T05:03:53;6.60;99.90
45643;DHT22;31358;46.008;11.144;2022-12-05T05:06:20;6.60;99.90
45643;DHT22;31358;46.008;11.144;2022-12-05T05:08:48;6.60;99.90
45643;DHT22;31358;46.008;11.144;2022-12-05T05:11:29;6.60;99.90
45643;DHT22;31358;46.008;11.144;2022-12-05T05:13:55;6.50;99.90
45643;DHT22;31358;46.008;11.144;2022-12-05T05:16:36;6.50;99.90
45643;DHT22;31358;46.008;11.144;2022-12-05T05:19:02;6.50;99.90
45643;DHT22;31358;46.008;11.144;2022-12-05T05:23:56;6.60;99.90
45643;DHT22;31358;46.008;11.144;2022-12-05T05:26:22;6.50;99.90
45643;DHT22;31358;46.008;11.144;2022-12-05T05:28:49;6.50;99.90
45643;DHT22;31358;46.008;11.144;2022-12-05T05:31:16;6.50;99.90
45643;DHT22;31358;46.008;11.144;2022-12-05T05:33:42;6.50;99.90
45643;DHT22;31358;46.008;11.144;2022-12-05T05:36:10;6.50;99.90
45643;DHT22;31358;46.008;11.144;2022-12-05T05:38:38;6.60;99.90
45643;DHT22;31358;46.008;11.144;2022-12-05T05:41:04;6.60;99.90
45643;DHT22;31358;46.008;11.144;2022-12-05T05:43:31;6.60;99.90
45643;DHT22;31358;46.008;11.144;2022-12-05T05:45:56;6.70;99.90
45643;DHT22;31358;46.008;11.144;2022-12-05T05:48:22;6.70;99.90
45643;DHT22;31358;46.008;11.144;2022-12-05T05:50:48;6.60;99.90
45643;DHT22;31358;46.008;11.144;2022-12-05T05:53:13;6.70;99.90
45643;DHT22;31358;46.008;11.144;2022-12-05T05:55:39;6.60;99.90
45643;DHT22;31358;46.008;11.144;2022-12-05T05:58:05;6.60;99.90
45643;DHT22;31358;46.008;11.144;2022-12-05T06:00:31;6.50;99.90
45643;DHT22;31358;46.008;11.144;2022-12-05T06:02:56;6.50;99.90
45643;DHT22;31358;46.008;11.144;2022-12-05T06:05:23;6.50;99.90
45643;DHT22;31358;46.008;11.144;2022-12-05T06:07:48;6.60;99.90
45643;DHT22;31358;46.008;11.144;2022-12-05T06:10:16;6.60;99.90
45643;DHT22;31358;46.008;11.144;2022-12-05T06:12:42;6.50;99.90
45643;DHT22;31358;46.008;11.144;2022-12-05T06:15:08;6.40;99.90
45643;DHT22;31358;46.008;11.144;2022-12-05T06:17:33;6.50;99.90
45643;DHT22;31358;46.008;11.144;2022-12-05T06:19:59;6.50;99.90
45643;DHT22;31358;46.008;11.144;2022-12-05T06:22:25;6.50;99.90
45643;DHT22;31358;46.008;11.144;2022-12-05T06:24:50;6.30;99.90
45643;DHT22;31358;46.008;11.144;2022-12-05T06:27:16;6.40;99.90
45643;DHT22;31358;46.008;11.144;2022-12-05T06:29:42;6.40;99.90
45643;DHT22;31358;46.008;11.144;2022-12-05T06:32:07;6.50;99.90
45643;DHT22;31358;46.008;11.144;2022-12-05T06:34:33;6.50;99.90
45643;DHT22;31358;46.008;11.144;2022-12-05T06:37:00;6.60;99.90
45643;DHT22;31358;46.008;11.144;2022-12-05T06:39:26;6.60;99.90
45643;DHT22;31358;46.008;11.144;2022-12-05T06:41:52;6.60;99.90
45643;DHT22;31358;46.008;11.144;2022-12-05T06:44:17;6.60;99.90
45643;DHT22;31358;46.008;11.144;2022-12-05T06:46:43;6.60;99.90
45643;DHT22;31358;46.008;11.144;2022-12-05T06:49:09;6.60;99.90
45643;DHT22;31358;46.008;11.144;2022-12-05T06:51:35;6.60;99.90
45643;DHT22;31358;46.008;11.144;2022-12-05T06:54:01;6.70;99.90
45643;DHT22;31358;46.008;11.144;2022-12-05T06:56:26;6.80;99.90
45643;DHT22;31358;46.008;11.144;2022-12-05T06:58:53;6.80;99.90
45643;DHT22;31358;46.008;11.144;2022-12-05T07:01:22;6.60;99.90
45643;DHT22;31358;46.008;11.144;2022-12-05T07:04:19;6.70;99.90
45643;DHT22;31358;46.008;11.144;2022-12-05T07:06:46;6.60;99.90
45643;DHT22;31358;46.008;11.144;2022-12-05T07:09:13;6.50;99.90
45643;DHT22;31358;46.008;11.144;2022-12-05T07:11:40;6.60;99.90
45643;DHT22;31358;46.008;11.144;2022-12-05T07:14:05;6.60;99.90
45643;DHT22;31358;46.008;11.144;2022-12-05T07:16:34;6.70;99.90
45643;DHT22;31358;46.008;11.144;2022-12-05T07:19:00;6.70;99.90
45643;DHT22;31358;46.008;11.144;2022-12-05T07:21:26;6.70;99.90
45643;DHT22;31358;46.008;11.144;2022-12-05T07:23:51;6.80;99.90
45643;DHT22;31358;46.008;11.144;2022-12-05T07:26:21;6.90;99.90
45643;DHT22;31358;46.008;11.144;2022-12-05T07:28:48;6.90;99.90
45643;DHT22;31358;46.008;11.144;2022-12-05T07:31:16;6.90;99.90
45643;DHT22;31358;46.008;11.144;2022-12-05T07:33:42;6.80;99.90
45643;DHT22;31358;46.008;11.144;2022-12-05T07:36:12;6.80;99.90
45643;DHT22;31358;46.008;11.144;2022-12-05T07:38:38;6.80;99.90
45643;DHT22;31358;46.008;11.144;2022-12-05T07:41:20;6.70;99.90
45643;DHT22;31358;46.008;11.144;2022-12-05T07:43:46;6.60;99.90
45643;DHT22;31358;46.008;11.144;2022-12-05T07:46:12;6.70;99.90
45643;DHT22;31358;46.008;11.144;2022-12-05T07:48:38;6.70;99.90
45643;DHT22;31358;46.008;11.144;2022-12-05T07:51:06;6.80;99.90
45643;DHT22;31358;46.008;11.144;2022-12-05T07:53:32;6.80;99.90
45643;DHT22;31358;46.008;11.144;2022-12-05T07:56:00;6.80;99.90
45643;DHT22;31358;46.008;11.144;2022-12-05T07:58:29;6.80;99.90
45643;DHT22;31358;46.008;11.144;2022-12-05T08:00:55;6.90;99.90
45643;DHT22;31358;46.008;11.144;2022-12-05T08:03:21;6.80;99.90
45643;DHT22;31358;46.008;11.144;2022-12-05T08:05:47;6.90;99.90
45643;DHT22;31358;46.008;11.144;2022-12-05T08:08:13;6.90;99.90
45643;DHT22;31358;46.008;11.144;2022-12-05T08:10:38;6.90;99.90
45643;DHT22;31358;46.008;11.144;2022-12-05T08:13:04;6.90;99.90
45643;DHT22;31358;46.008;11.144;2022-12-05T08:15:32;7.00;99.90
45643;DHT22;31358;46.008;11.144;2022-12-05T08:17:58;6.90;99.90
45643;DHT22;31358;46.008;11.144;2022-12-05T08:20:24;7.00;99.90
45643;DHT22;31358;46.008;11.144;2022-12-05T08:22:51;7.00;99.90
45643;DHT22;31358;46.008;11.144;2022-12-05T08:25:18;7.10;99.90
45643;DHT22;31358;46.008;11.144;2022-12-05T08:27:43;7.10;99.90
45643;DHT22;31358;46.008;11.144;2022-12-05T08:30:09;7.10;99.90
45643;DHT22;31358;46.008;11.144;2022-12-05T08:32:34;7.10;99.90
45643;DHT22;31358;46.008;11.144;2022-12-05T08:35:00;7.10;99.90
45643;DHT22;31358;46.008;11.144;2022-12-05T08:37:26;7.00;99.90
45643;DHT22;31358;46.008;11.144;2022-12-05T08:39:51;7.00;99.90
45643;DHT22;31358;46.008;11.144;2022-12-05T08:42:17;7.00;99.90
45643;DHT22;31358;46.008;11.144;2022-12-05T08:44:42;7.10;99.90
45643;DHT22;31358;46.008;11.144;2022-12-05T08:47:08;7.10;99.90
45643;DHT22;31358;46.008;11.144;2022-12-05T08:49:34;7.20;99.90
45643;DHT22;31358;46.008;11.144;2022-12-05T08:51:59;7.20;99.90
45643;DHT22;31358;46.008;11.144;2022-12-05T08:54:25;7.30;99.90
45643;DHT22;31358;46.008;11.144;2022-12-05T08:56:51;7.40;99.90
45643;DHT22;31358;46.008;11.144;2022-12-05T08:59:17;7.30;99.90
45643;DHT22;31358;46.008;11.144;2022-12-05T09:01:43;7.30;99.90
45643;DHT22;31358;46.008;11.144;2022-12-05T09:04:08;7.30;99.90
45643;DHT22;31358;46.008;11.144;2022-12-05T09:06:35;7.20;99.90
45643;DHT22;31358;46.008;11.144;2022-12-05T09:09:03;7.20;99.90
45643;DHT22;31358;46.008;11.144;2022-12-05T09:11:31;7.20;99.90
45643;DHT22;31358;46.008;11.144;2022-12-05T09:13:58;7.20;99.90
45643;DHT22;31358;46.008;11.144;2022-12-05T09:16:29;7.20;99.90
45643;DHT22;31358;46.008;11.144;2022-12-05T09:18:55;7.20;99.90
45643;DHT22;31358;46.008;11.144;2022-12-05T09:21:23;7.10;99.90
45643;DHT22;31358;46.008;11.144;2022-12-05T09:23:50;7.10;99.90
45643;DHT22;31358;46.008;11.144;2022-12-05T09:26:19;7.30;99.90
45643;DHT22;31358;46.008;11.144;2022-12-05T09:28:45;7.20;99.90
45643;DHT22;31358;46.008;11.144;2022-12-05T09:31:16;7.30;99.90
45643;DHT22;31358;46.008;11.144;2022-12-05T09:33:43;7.20;99.90
45643;DHT22;31358;46.008;11.144;2022-12-05T09:36:13;7.30;99.90
45643;DHT22;31358;46.008;11.144;2022-12-05T09:38:40;7.30;99.90
45643;DHT22;31358;46.008;11.144;2022-12-05T09:52:42;7.30;99.90
45643;DHT22;31358;46.008;11.144;2022-12-05T09:55:15;7.20;99.90
45643;DHT22;31358;46.008;11.144;2022-12-05T09:57:57;7.20;99.90
45643;DHT22;31358;46.008;11.144;2022-12-05T10:00:27;7.20;99.90
45643;DHT22;31358;46.008;11.144;2022-12-05T10:03:32;7.10;99.90
45643;DHT22;31358;46.008;11.144;2022-12-05T10:11:41;7.20;99.90
45643;DHT22;31358;46.008;11.144;2022-12-05T10:14:16;7.30;99.90
45643;DHT22;31358;46.008;11.144;2022-12-05T10:16:53;7.30;99.90
45643;DHT22;31358;46.008;11.144;2022-12-05T10:19:34;7.30;99.90
45643;DHT22;31358;46.008;11.144;2022-12-05T10:22:16;7.20;99.90
45643;DHT22;31358;46.008;11.144;2022-12-05T10:24:46;7.10;99.90
45643;DHT22;31358;46.008;11.144;2022-12-05T10:27:18;7.10;99.90
45643;DHT22;31358;46.008;11.144;2022-12-05T10:29:52;7.00;99.90
45643;DHT22;31358;46.008;11.144;2022-12-05T10:32:34;7.10;99.90
45643;DHT22;31358;46.008;11.144;2022-12-05T10:35:23;7.10;99.90
45643;DHT22;31358;46.008;11.144;2022-12-05T10:37:51;7.20;99.90
45643;DHT22;31358;46.008;11.144;2022-12-05T10:40:18;7.20;99.90
45643;DHT22;31358;46.008;11.144;2022-12-05T10:42:44;7.30;99.90
45643;DHT22;31358;46.008;11.144;2022-12-05T10:45:19;7.30;99.90
45643;DHT22;31358;46.008;11.144;2022-12-05T10:47:47;7.20;99.90
45643;DHT22;31358;46.008;11.144;2022-12-05T10:50:27;7.20;99.90
45643;DHT22;31358;46.008;11.144;2022-12-05T10:52:55;7.20;99.90
45643;DHT22;31358;46.008;11.144;2022-12-05T10:55:22;7.20;99.90
45643;DHT22;31358;46.008;11.144;2022-12-05T10:57:52;7.10;99.90
45643;DHT22;31358;46.008;11.144;2022-12-05T11:00:32;7.20;99.90
45643;DHT22;31358;46.008;11.144;2022-12-05T11:03:00;7.30;99.90
45643;DHT22;31358;46.008;11.144;2022-12-05T11:05:30;7.30;99.90
45643;DHT22;31358;46.008;11.144;2022-12-05T11:07:57;7.30;99.90
45643;DHT22;31358;46.008;11.144;2022-12-05T11:10:33;7.30;99.90
45643;DHT22;31358;46.008;11.144;2022-12-05T11:12:59;7.30;99.90
45643;DHT22;31358;46.008;11.144;2022-12-05T11:15:29;7.30;99.90
45643;DHT22;31358;46.008;11.144;2022-12-05T11:17:57;7.40;99.90
45643;DHT22;31358;46.008;11.144;2022-12-05T11:20:31;7.40;99.90
45643;DHT22;31358;46.008;11.144;2022-12-05T11:22:57;7.50;99.90
45643;DHT22;31358;46.008;11.144;2022-12-05T11:25:38;7.60;99.90
45643;DHT22;31358;46.008;11.144;2022-12-05T11:31:04;7.60;99.90
45643;DHT22;31358;46.008;11.144;2022-12-05T11:33:32;7.40;99.90
45643;DHT22;31358;46.008;11.144;2022-12-05T11:38:40;7.60;99.90
45643;DHT22;31358;46.008;11.144;2022-12-05T11:55:20;7.40;99.90
45643;DHT22;31358;46.008;11.144;2022-12-05T12:15:35;7.30;99.90
45643;DHT22;31358;46.008;11.144;2022-12-05T12:23:55;7.30;99.90
45643;DHT22;31358;46.008;11.144;2022-12-05T12:26:58;7.20;99.90
45643;DHT22;31358;46.008;11.144;2022-12-05T12:40:42;7.40;99.90
45643;DHT22;31358;46.008;11.144;2022-12-05T12:51:15;7.50;99.90
45643;DHT22;31358;46.008;11.144;2022-12-05T12:54:26;7.60;99.90
45643;DHT22;31358;46.008;11.144;2022-12-05T13:02:16;7.50;99.90
45643;DHT22;31358;46.008;11.144;2022-12-05T13:04:47;7.40;99.90
45643;DHT22;31358;46.008;11.144;2022-12-05T13:09:59;7.20;99.90
45643;DHT22;31358;46.008;11.144;2022-12-05T13:12:30;7.10;99.90
45643;DHT22;31358;46.008;11.144;2022-12-05T13:15:15;7.10;99.90
45643;DHT22;31358;46.008;11.144;2022-12-05T13:17:43;7.10;99.90
45643;DHT22;31358;46.008;11.144;2022-12-05T13:20:19;7.00;99.90
45643;DHT22;31358;46.008;11.144;2022-12-05T13:22:47;7.00;99.90
45643;DHT22;31358;46.008;11.144;2022-12-05T13:25:15;7.00;99.90
45643;DHT22;31358;46.008;11.144;2022-12-05T13:28:02;7.10;99.90
45643;DHT22;31358;46.008;11.144;2022-12-05T13:30:29;7.20;99.90
45643;DHT22;31358;46.008;11.144;2022-12-05T13:33:00;7.30;99.90
45643;DHT22;31358;46.008;11.144;2022-12-05T13:35:36;7.10;99.90
45643;DHT22;31358;46.008;11.144;2022-12-05T13:38:29;7.20;99.90
45643;DHT22;31358;46.008;11.144;2022-12-05T13:41:14;7.30;99.90
45643;DHT22;31358;46.008;11.144;2022-12-05T13:43:59;7.30;99.90
45643;DHT22;31358;46.008;11.144;2022-12-05T13:46:30;7.30;99.90
45643;DHT22;31358;46.008;11.144;2022-12-05T13:49:07;7.20;99.90
45643;DHT22;31358;46.008;11.144;2022-12-05T13:51:41;7.30;99.90
45643;DHT22;31358;46.008;11.144;2022-12-05T13:54:29;7.30;99.90
45643;DHT22;31358;46.008;11.144;2022-12-05T13:56:58;7.30;99.90
45643;DHT22;31358;46.008;11.144;2022-12-05T14:07:51;7.20;99.90
45643;DHT22;31358;46.008;11.144;2022-12-05T14:15:39;7.10;99.90
45643;DHT22;31358;46.008;11.144;2022-12-05T14:18:15;7.20;99.90
45643;DHT22;31358;46.008;11.144;2022-12-05T14:20:46;7.20;99.90
45643;DHT22;31358;46.008;11.144;2022-12-05T14:34:32;7.20;99.90
45643;DHT22;31358;46.008;11.144;2022-12-05T14:39:38;7.10;99.90
45643;DHT22;31358;46.008;11.144;2022-12-05T14:42:24;7.10;99.90
45643;DHT22;31358;46.008;11.144;2022-12-05T14:44:54;7.10;99.90
45643;DHT22;31358;46.008;11.144;2022-12-05T14:47:23;7.10;99.90
45643;DHT22;31358;46.008;11.144;2022-12-05T14:49:51;7.20;99.90
45643;DHT22;31358;46.008;11.144;2022-12-05T14:52:23;7.30;99.90
45643;DHT22;31358;46.008;11.144;2022-12-05T14:54:52;7.40;99.90
45643;DHT22;31358;46.008;11.144;2022-12-05T14:57:18;7.40;99.90
45643;DHT22;31358;46.008;11.144;2022-12-05T14:59:52;7.30;99.90
45643;DHT22;31358;46.008;11.144;2022-12-05T15:02:30;7.20;99.90
45643;DHT22;31358;46.008;11.144;2022-12-05T15:07:47;7.10;99.90
45643;DHT22;31358;46.008;11.144;2022-12-05T15:10:34;7.10;99.90
45643;DHT22;31358;46.008;11.144;2022-12-05T15:13:06;7.10;99.90
45643;DHT22;31358;46.008;11.144;2022-12-05T15:21:06;7.10;99.90
45643;DHT22;31358;46.008;11.144;2022-12-05T15:26:28;7.10;99.90
45643;DHT22;31358;46.008;11.144;2022-12-05T15:37:02;7.10;99.90
45643;DHT22;31358;46.008;11.144;2022-12-05T15:39:29;7.10;99.90
45643;DHT22;31358;46.008;11.144;2022-12-05T15:42:14;7.00;99.90
45643;DHT22;31358;46.008;11.144;2022-12-05T15:44:40;7.00;99.90
45643;DHT22;31358;46.008;11.144;2022-12-05T15:47:21;6.90;99.90
45643;DHT22;31358;46.008;11.144;2022-12-05T15:49:48;7.40;99.90
45643;DHT22;31358;46.008;11.144;2022-12-05T15:54:58;7.20;99.90
45643;DHT22;31358;46.008;11.144;2022-12-05T15:57:30;7.10;99.90
45643;DHT22;31358;46.008;11.144;2022-12-05T16:00:06;7.10;99.90
45643;DHT22;31358;46.008;11.144;2022-12-05T16:02:40;7.10;99.90
45643;DHT22;31358;46.008;11.144;2022-12-05T16:05:18;7.00;99.90
45643;DHT22;31358;46.008;11.144;2022-12-05T16:07:45;6.80;99.90
45643;DHT22;31358;46.008;11.144;2022-12-05T16:10:14;6.70;99.90
45643;DHT22;31358;46.008;11.144;2022-12-05T16:12:40;6.70;99.90
45643;DHT22;31358;46.008;11.144;2022-12-05T16:15:17;6.60;99.90
45643;DHT22;31358;46.008;11.144;2022-12-05T16:17:46;6.70;99.90
45643;DHT22;31358;46.008;11.144;2022-12-05T16:22:46;6.70;99.90
45643;DHT22;31358;46.008;11.144;2022-12-05T16:25:20;6.80;99.90
45643;DHT22;31358;46.008;11.144;2022-12-05T16:28:13;6.80;99.90
45643;DHT22;31358;46.008;11.144;2022-12-05T16:30:51;6.90;99.90
45643;DHT22;31358;46.008;11.144;2022-12-05T16:33:17;6.90;99.90
45643;DHT22;31358;46.008;11.144;2022-12-05T16:35:44;6.90;99.90
45643;DHT22;31358;46.008;11.144;2022-12-05T16:48:46;6.80;99.90
45643;DHT22;31358;46.008;11.144;2022-12-05T16:53:59;6.70;99.90
45643;DHT22;31358;46.008;11.144;2022-12-05T16:56:28;6.70;99.90
45643;DHT22;31358;46.008;11.144;2022-12-05T16:58:55;6.70;99.90
45643;DHT22;31358;46.008;11.144;2022-12-05T17:01:25;6.70;99.90
45643;DHT22;31358;46.008;11.144;2022-12-05T17:03:55;6.70;99.90
45643;DHT22;31358;46.008;11.144;2022-12-05T17:06:22;6.60;99.90
45643;DHT22;31358;46.008;11.144;2022-12-05T17:08:49;6.50;99.90
45643;DHT22;31358;46.008;11.144;2022-12-05T17:11:34;6.50;99.90
45643;DHT22;31358;46.008;11.144;2022-12-05T17:14:01;6.40;99.90
45643;DHT22;31358;46.008;11.144;2022-12-05T17:16:28;6.40;99.90
45643;DHT22;31358;46.008;11.144;2022-12-05T17:18:53;6.30;99.90
45643;DHT22;31358;46.008;11.144;2022-12-05T17:21:21;6.30;99.90
45643;DHT22;31358;46.008;11.144;2022-12-05T17:23:48;6.20;99.90
45643;DHT22;31358;46.008;11.144;2022-12-05T17:26:19;6.20;99.90
45643;DHT22;31358;46.008;11.144;2022-12-05T17:28:45;6.30;99.90
45643;DHT22;31358;46.008;11.144;2022-12-05T17:31:16;6.40;99.90
45643;DHT22;31358;46.008;11.144;2022-12-05T17:33:43;6.60;99.90
45643;DHT22;31358;46.008;11.144;2022-12-05T17:36:09;6.60;99.90
45643;DHT22;31358;46.008;11.144;2022-12-05T17:38:34;6.60;99.90
45643;DHT22;31358;46.008;11.144;2022-12-05T17:41:00;6.50;99.90
45643;DHT22;31358;46.008;11.144;2022-12-05T17:43:26;6.50;99.90
45643;DHT22;31358;46.008;11.144;2022-12-05T17:45:52;6.40;99.90
45643;DHT22;31358;46.008;11.144;2022-12-05T17:48:19;6.50;99.90
45643;DHT22;31358;46.008;11.144;2022-12-05T17:50:46;6.60;99.90
45643;DHT22;31358;46.008;11.144;2022-12-05T17:53:14;6.60;99.90
45643;DHT22;31358;46.008;11.144;2022-12-05T17:55:40;6.70;99.90
45643;DHT22;31358;46.008;11.144;2022-12-05T17:58:07;6.60;99.90
45643;DHT22;31358;46.008;11.144;2022-12-05T18:00:33;6.50;99.90
45643;DHT22;31358;46.008;11.144;2022-12-05T18:02:59;6.40;99.90
45643;DHT22;31358;46.008;11.144;2022-12-05T18:05:25;6.30;99.90
45643;DHT22;31358;46.008;11.144;2022-12-05T18:07:50;6.30;99.90
45643;DHT22;31358;46.008;11.144;2022-12-05T18:10:20;6.30;99.90
45643;DHT22;31358;46.008;11.144;2022-12-05T18:12:47;6.40;99.90
45643;DHT22;31358;46.008;11.144;2022-12-05T18:15:13;6.60;99.90
45643;DHT22;31358;46.008;11.144;2022-12-05T18:17:39;6.60;99.90
45643;DHT22;31358;46.008;11.144;2022-12-05T18:20:09;6.40;99.90
45643;DHT22;31358;46.008;11.144;2022-12-05T18:22:36;6.40;99.90
45643;DHT22;31358;46.008;11.144;2022-12-05T18:25:02;6.40;99.90
45643;DHT22;31358;46.008;11.144;2022-12-05T18:27:29;6.50;99.90
45643;DHT22;31358;46.008;11.144;2022-12-05T18:29:54;6.50;99.90
45643;DHT22;31358;46.008;11.144;2022-12-05T18:32:20;6.50;99.90
45643;DHT22;31358;46.008;11.144;2022-12-05T18:34:46;6.50;99.90
45643;DHT22;31358;46.008;11.144;2022-12-05T18:37:12;6.50;99.90
45643;DHT22;31358;46.008;11.144;2022-12-05T18:39:38;6.50;99.90
45643;DHT22;31358;46.008;11.144;2022-12-05T18:42:04;6.40;99.90
45643;DHT22;31358;46.008;11.144;2022-12-05T18:44:30;6.30;99.90
45643;DHT22;31358;46.008;11.144;2022-12-05T18:46:56;6.40;99.90
45643;DHT22;31358;46.008;11.144;2022-12-05T18:49:22;6.40;99.90
45643;DHT22;31358;46.008;11.144;2022-12-05T18:51:49;6.50;99.90
45643;DHT22;31358;46.008;11.144;2022-12-05T18:54:14;6.40;99.90
45643;DHT22;31358;46.008;11.144;2022-12-05T18:56:40;6.40;99.90
45643;DHT22;31358;46.008;11.144;2022-12-05T18:59:20;6.40;99.90
45643;DHT22;31358;46.008;11.144;2022-12-05T19:01:47;6.40;99.90
45643;DHT22;31358;46.008;11.144;2022-12-05T19:04:14;6.30;99.90